createdAt,value
2019-03-28T00:01:27.698Z,103083.45
2019-03-28T00:06:18.356Z,103081.98
2019-03-28T00:11:07.142Z,103081.79
2019-03-28T00:16:00.766Z,103085.44
2019-03-28T00:20:52.124Z,103080.22
2019-03-28T00:25:44.333Z,103089.73
2019-03-28T00:30:38.468Z,103095.75
2019-03-28T00:35:32.261Z,103096.66
2019-03-28T00:40:26.410Z,103095.61
2019-03-28T00:45:19.800Z,103093.78
2019-03-28T00:50:13.216Z,103097.68
2019-03-28T00:55:07.618Z,103096.38
2019-03-28T01:00:01.323Z,103092.09
2019-03-28T01:04:54.861Z,103096.56
2019-03-28T01:09:46.530Z,103093.64
2019-03-28T01:14:40.465Z,103089.81
2019-03-28T01:19:32.216Z,103084.02
2019-03-28T01:24:26.046Z,103076.07
2019-03-28T01:29:19.609Z,103070.06
2019-03-28T01:34:28.052Z,103070.66
2019-03-28T01:39:17.289Z,103069.66
2019-03-28T01:44:09.227Z,103077.39
2019-03-28T01:49:04.069Z,103072.06
2019-03-28T01:53:55.242Z,103072.30
2019-03-28T01:58:51.031Z,103069.45
2019-03-28T02:03:44.673Z,103064.09
2019-03-28T02:08:37.826Z,103066.13
2019-03-28T02:13:30.629Z,103062.64
2019-03-28T02:18:24.528Z,103055.45
2019-03-28T02:23:16.111Z,103061.46
2019-03-28T02:28:08.270Z,103063.23
2019-03-28T02:33:01.230Z,103072.87
2019-03-28T02:37:52.805Z,103065.55
2019-03-28T02:42:45.018Z,103065.16
2019-03-28T02:47:39.278Z,103065.66
2019-03-28T02:52:33.286Z,103064.70
2019-03-28T02:57:44.187Z,103070.75
2019-03-28T03:02:35.769Z,103074.74
2019-03-28T03:07:28.838Z,103079.38
2019-03-28T03:12:22.166Z,103074.47
2019-03-28T03:17:17.327Z,103083.26
2019-03-28T03:22:09.967Z,103085.56
2019-03-28T03:27:01.658Z,103090.83
2019-03-28T03:31:56.003Z,103091.64
2019-03-28T03:37:05.210Z,103091.16
2019-03-28T03:41:54.455Z,103093.75
2019-03-28T03:46:48.480Z,103089.88
2019-03-28T03:51:46.595Z,103095.71
2019-03-28T03:56:37.302Z,103100.53
2019-03-28T04:01:29.143Z,103104.30
2019-03-28T04:06:30.112Z,103108.02
2019-03-28T04:11:40.002Z,103115.17
2019-03-28T04:16:52.483Z,103114.07
2019-03-28T04:21:43.628Z,103112.55
2019-03-28T04:26:35.080Z,103114.25
2019-03-28T04:31:27.230Z,103117.86
2019-03-28T04:36:19.552Z,103118.37
2019-03-28T04:41:11.722Z,103120.52
2019-03-28T04:46:05.721Z,103122.17
2019-03-28T04:50:59.560Z,103128.54
2019-03-28T04:55:50.919Z,103128.01
2019-03-28T05:00:42.679Z,103125.53
2019-03-28T05:05:34.722Z,103135.83
2019-03-28T05:10:26.962Z,103140.12
2019-03-28T05:15:22.173Z,103137.59
2019-03-28T05:20:16.267Z,103139.36
2019-03-28T05:25:08.585Z,103141.20
2019-03-28T05:30:00.425Z,103142.72
2019-03-28T05:34:52.109Z,103146.37
2019-03-28T05:39:44.087Z,103142.09
2019-03-28T05:44:36.911Z,103146.23
2019-03-28T05:49:29.373Z,103148.00
2019-03-28T05:54:21.346Z,103145.73
2019-03-28T05:59:13.277Z,103149.13
2019-03-28T06:04:05.168Z,103151.46
2019-03-28T06:08:58.125Z,103155.18
2019-03-28T06:13:49.730Z,103155.13
2019-03-28T06:18:42.084Z,103159.38
2019-03-28T06:23:34.047Z,103157.89
2019-03-28T06:28:27.009Z,103160.27
2019-03-28T06:33:18.855Z,103154.54
2019-03-28T06:38:13.396Z,103158.36
2019-03-28T06:43:07.874Z,103158.09
2019-03-28T06:47:59.299Z,103158.26
2019-03-28T06:52:51.362Z,103161.83
2019-03-28T06:57:43.503Z,103163.20
2019-03-28T07:02:35.548Z,103161.84
2019-03-28T07:07:27.841Z,103166.23
2019-03-28T07:12:20.185Z,103173.12
2019-03-28T07:17:12.113Z,103182.58
2019-03-28T07:22:04.072Z,103182.40
2019-03-28T07:26:56.026Z,103166.75
2019-03-28T07:31:47.852Z,103172.91
2019-03-28T07:36:39.834Z,103167.15
2019-03-28T07:41:31.952Z,103167.25
2019-03-28T07:46:24.308Z,103169.03
2019-03-28T07:51:16.544Z,103171.16
2019-03-28T07:56:08.610Z,103171.23
2019-03-28T08:01:00.963Z,103173.77
2019-03-28T08:05:53.164Z,103185.62
2019-03-28T08:10:45.091Z,103186.64
2019-03-28T08:15:37.009Z,103185.02
2019-03-28T08:20:29.299Z,103192.39
2019-03-28T08:25:21.249Z,103200.70
2019-03-28T08:30:20.829Z,103203.92
2019-03-28T08:35:12.124Z,103205.63
2019-03-28T08:40:03.902Z,103207.41
2019-03-28T08:44:56.057Z,103216.59
2019-03-28T08:49:50.136Z,103228.52
2019-03-28T08:54:42.015Z,103225.80
2019-03-28T08:59:48.930Z,103227.63
2019-03-28T09:04:42.805Z,103227.70
2019-03-28T09:09:36.958Z,103229.03
2019-03-28T09:19:40.599Z,103235.41
2019-03-28T09:24:32.035Z,103234.73
2019-03-28T09:29:23.959Z,103239.33
2019-03-28T09:34:16.046Z,103238.70
2019-03-28T09:39:09.263Z,103234.56
2019-03-28T09:44:01.672Z,103229.57
2019-03-28T09:48:56.013Z,103229.98
2019-03-28T09:53:48.117Z,103227.48
2019-03-28T09:58:40.547Z,103230.61
2019-03-28T10:03:33.990Z,103226.00
2019-03-28T10:08:26.128Z,103220.00
2019-03-28T10:13:18.128Z,103228.01
2019-03-28T10:18:10.298Z,103224.30
2019-03-28T10:23:03.930Z,103218.27
2019-03-28T10:27:56.035Z,103220.48
2019-03-28T10:32:50.285Z,103219.23
2019-03-28T10:37:42.278Z,103214.00
2019-03-28T10:42:35.178Z,103216.66
2019-03-28T10:47:28.711Z,103199.22
2019-03-28T10:52:21.264Z,103202.98
2019-03-28T10:57:32.217Z,103204.77
2019-03-28T11:02:22.168Z,103204.31
2019-03-28T11:07:14.980Z,103200.55
2019-03-28T11:12:07.645Z,103197.81
2019-03-28T11:17:00.471Z,103192.56
2019-03-28T11:21:52.958Z,103195.75
2019-03-28T11:26:48.294Z,103197.59
2019-03-28T11:31:53.309Z,103191.84
2019-03-28T11:36:43.523Z,103199.13
2019-03-28T11:41:36.756Z,103193.14
2019-03-28T11:46:28.862Z,103191.09
2019-03-28T11:51:20.994Z,103198.86
2019-03-28T11:56:13.192Z,103200.63
2019-03-28T12:01:05.846Z,103200.19
2019-03-28T12:05:58.380Z,103195.09
2019-03-28T12:10:51.277Z,103193.02
2019-03-28T12:15:43.566Z,103189.25
2019-03-28T12:20:36.420Z,103189.32
2019-03-28T12:25:28.734Z,103183.70
2019-03-28T12:30:22.045Z,103170.94
2019-03-28T12:35:14.752Z,103174.38
2019-03-28T12:40:07.515Z,103165.24
2019-03-28T12:45:01.197Z,103153.30
2019-03-28T12:49:53.350Z,103153.95
2019-03-28T12:54:46.086Z,103154.41
2019-03-28T12:59:40.554Z,103152.73
2019-03-28T13:04:32.865Z,103147.53
2019-03-28T13:09:25.321Z,103140.47
2019-03-28T13:14:17.717Z,103145.17
2019-03-28T13:19:09.879Z,103136.22
2019-03-28T13:24:02.075Z,103128.34
2019-03-28T13:28:55.460Z,103132.02
2019-03-28T13:33:47.356Z,103131.67
2019-03-28T13:38:39.817Z,103128.66
2019-03-28T13:43:33.451Z,103117.44
2019-03-28T13:48:25.578Z,103119.30
2019-03-28T13:53:18.062Z,103113.08
2019-03-28T13:58:10.363Z,103114.42
2019-03-28T14:03:02.518Z,103114.64
2019-03-28T14:07:55.570Z,103113.50
2019-03-28T14:12:47.755Z,103109.81
2019-03-28T14:17:39.811Z,103107.61
2019-03-28T14:22:32.335Z,103108.70
2019-03-28T14:27:24.869Z,103097.94
2019-03-28T14:32:17.365Z,103100.34
2019-03-28T14:37:09.923Z,103105.89
2019-03-28T14:42:02.337Z,103099.41
2019-03-28T14:46:55.505Z,103101.39
2019-03-28T14:51:47.963Z,103096.89
2019-03-28T14:56:41.111Z,103101.44
2019-03-28T15:01:34.085Z,103091.36
2019-03-28T15:06:28.088Z,103086.09
2019-03-28T15:11:20.203Z,103092.44
2019-03-28T15:16:12.357Z,103084.14
2019-03-28T15:21:04.709Z,103084.98
2019-03-28T15:25:59.089Z,103082.36
2019-03-28T15:30:51.834Z,103080.97
2019-03-28T15:35:43.940Z,103081.41
2019-03-28T15:40:36.177Z,103082.60
2019-03-28T15:45:28.461Z,103079.05
2019-03-28T15:50:21.700Z,103073.98
2019-03-28T15:55:16.607Z,103074.52
2019-03-28T16:00:08.124Z,103081.97
2019-03-28T16:05:00.443Z,103084.53
2019-03-28T16:09:52.693Z,103082.00
2019-03-28T16:14:45.431Z,103083.70
2019-03-28T16:19:37.590Z,103080.97
2019-03-28T16:24:29.912Z,103080.49
2019-03-28T16:29:22.470Z,103072.84
2019-03-28T16:34:14.961Z,103071.33
2019-03-28T16:39:07.252Z,103065.55
2019-03-28T16:44:00.647Z,103067.00
2019-03-28T16:48:52.762Z,103072.75
2019-03-28T16:53:45.301Z,103064.41
2019-03-28T16:58:37.623Z,103063.61
2019-03-28T17:03:31.842Z,103065.55
2019-03-28T17:08:23.852Z,103066.78
2019-03-28T17:13:15.996Z,103070.56
2019-03-28T17:18:08.373Z,103070.11
2019-03-28T17:23:01.813Z,103072.09
2019-03-28T17:27:54.068Z,103072.53
2019-03-28T17:32:46.252Z,103077.03
2019-03-28T17:37:38.485Z,103079.73
2019-03-28T17:42:32.699Z,103079.17
2019-03-28T17:47:24.536Z,103073.11
2019-03-28T17:52:16.655Z,103074.61
2019-03-28T17:57:08.953Z,103072.91
2019-03-28T18:02:01.357Z,103079.96
2019-03-28T18:06:54.431Z,103080.22
2019-03-28T18:11:46.443Z,103086.35
2019-03-28T18:16:39.189Z,103086.33
2019-03-28T18:21:31.422Z,103084.26
2019-03-28T18:26:23.674Z,103095.82
2019-03-28T18:31:15.934Z,103089.31
2019-03-28T18:36:08.343Z,103094.33
2019-03-28T18:41:00.476Z,103097.48
2019-03-28T18:45:52.900Z,103093.11
2019-03-28T18:50:45.210Z,103094.37
2019-03-28T18:55:39.247Z,103091.16
2019-03-28T19:00:30.955Z,103086.77
2019-03-28T19:05:24.735Z,103085.27
2019-03-28T19:10:16.394Z,103088.84
2019-03-28T19:15:08.536Z,103093.87
2019-03-28T19:20:01.763Z,103085.75
2019-03-28T19:24:53.764Z,103078.47
2019-03-28T19:29:45.763Z,103085.04
2019-03-28T19:34:38.012Z,103079.07
2019-03-28T19:39:30.047Z,103081.68
2019-03-28T19:44:22.056Z,103094.59
2019-03-28T19:49:14.489Z,103083.50
2019-03-28T19:54:06.553Z,103079.66
2019-03-28T19:59:01.133Z,103083.64
2019-03-28T20:03:55.815Z,103083.31
2019-03-28T20:08:47.246Z,103085.42
2019-03-28T20:13:39.597Z,103081.23
2019-03-28T20:18:31.672Z,103080.11
2019-03-28T20:23:24.520Z,103085.84
2019-03-28T20:28:17.897Z,103088.78
2019-03-28T20:33:09.370Z,103093.63
2019-03-28T20:38:01.636Z,103095.54
2019-03-28T20:42:53.789Z,103093.06
2019-03-28T20:47:46.008Z,103095.67
2019-03-28T20:52:38.292Z,103098.91
2019-03-28T20:57:30.381Z,103093.85
2019-03-28T21:02:23.904Z,103097.23
2019-03-28T21:07:15.565Z,103102.41
2019-03-28T21:12:07.580Z,103104.29
2019-03-28T21:17:00.945Z,103106.83
2019-03-28T21:21:53.044Z,103109.73
2019-03-28T21:26:45.169Z,103105.66
2019-03-28T21:31:52.557Z,103106.10
2019-03-28T21:36:43.697Z,103110.21
2019-03-28T21:41:35.033Z,103110.46
2019-03-28T21:46:29.003Z,103110.16
2019-03-28T21:51:21.763Z,103107.83
2019-03-28T21:56:15.895Z,103103.99
2019-03-28T22:01:08.281Z,103102.72
2019-03-28T22:05:59.660Z,103099.10
2019-03-28T22:10:51.549Z,103102.78
2019-03-28T22:15:45.635Z,103100.35
2019-03-28T22:20:36.880Z,103100.34
2019-03-28T22:25:30.840Z,103097.56
2019-03-28T22:30:22.243Z,103095.41
2019-03-28T22:35:14.245Z,103100.78
2019-03-28T22:40:06.681Z,103093.52
2019-03-28T22:44:58.238Z,103106.96
2019-03-28T22:49:50.153Z,103088.61
2019-03-28T22:54:42.461Z,103093.92
2019-03-28T22:59:34.566Z,103094.03
2019-03-28T23:04:24.581Z,103095.89
2019-03-28T23:09:15.524Z,103097.64
2019-03-28T23:14:07.009Z,103096.16
2019-03-28T23:18:58.897Z,103097.66
2019-03-28T23:23:50.180Z,103093.48
2019-03-28T23:28:40.473Z,103092.46
2019-03-28T23:33:31.605Z,103088.34
2019-03-28T23:38:23.225Z,103092.81
2019-03-28T23:43:17.034Z,103088.09
2019-03-28T23:48:10.274Z,103082.78
2019-03-28T23:53:03.615Z,103086.22
2019-03-28T23:57:56.775Z,103087.97
